createdAt,value
2022-09-04T00:01:44.974Z,15.20
2022-09-04T00:04:30.521Z,15.10
2022-09-04T00:07:34.691Z,15.10
2022-09-04T00:10:12.787Z,15.10
2022-09-04T00:12:55.614Z,15.00
2022-09-04T00:15:41.132Z,15.00
2022-09-04T00:18:13.961Z,14.90
2022-09-04T00:20:50.567Z,15.00
2022-09-04T00:23:34.550Z,15.00
2022-09-04T00:26:14.470Z,15.00
2022-09-04T00:28:49.292Z,15.00
2022-09-04T00:31:38.693Z,15.00
2022-09-04T00:34:39.181Z,15.00
2022-09-04T00:37:09.450Z,15.00
2022-09-04T00:39:46.082Z,15.00
2022-09-04T00:42:32.040Z,14.90
2022-09-04T00:45:14.636Z,14.90
2022-09-04T00:47:58.922Z,14.90
2022-09-04T00:51:03.381Z,14.80
2022-09-04T00:53:51.171Z,14.80
2022-09-04T00:56:50.092Z,14.70
2022-09-04T00:59:43.356Z,14.70
2022-09-04T01:02:21.177Z,14.60
2022-09-04T01:05:07.166Z,14.60
2022-09-04T01:07:47.388Z,14.60
2022-09-04T01:10:35.534Z,14.60
2022-09-04T01:13:16.757Z,14.60
2022-09-04T01:16:00.527Z,14.60
2022-09-04T01:18:44.193Z,14.60
2022-09-04T01:21:30.917Z,14.60
2022-09-04T01:24:27.244Z,14.70
2022-09-04T01:27:04.494Z,14.80
2022-09-04T01:30:01.706Z,14.80
2022-09-04T01:32:50.169Z,14.80
2022-09-04T01:35:44.392Z,14.90
2022-09-04T01:38:33.337Z,14.90
2022-09-04T01:41:19.655Z,15.00
2022-09-04T01:43:46.484Z,15.10
2022-09-04T01:46:35.049Z,15.10
2022-09-04T01:49:35.782Z,15.20
2022-09-04T01:52:23.009Z,15.20
2022-09-04T01:55:03.672Z,15.20
2022-09-04T01:57:57.828Z,15.30
2022-09-04T02:00:25.638Z,15.30
2022-09-04T02:02:56.565Z,15.30
2022-09-04T02:05:57.123Z,15.30
2022-09-04T02:08:56.647Z,15.30
2022-09-04T02:11:28.209Z,15.30
2022-09-04T02:14:04.508Z,15.40
2022-09-04T02:16:37.408Z,15.40
2022-09-04T02:19:28.509Z,15.40
2022-09-04T02:22:07.045Z,15.40
2022-09-04T02:25:00.466Z,15.40
2022-09-04T02:27:43.130Z,15.40
2022-09-04T02:30:16.256Z,15.40
2022-09-04T02:32:48.875Z,15.40
2022-09-04T02:35:24.712Z,15.40
2022-09-04T02:38:18.153Z,15.50
2022-09-04T02:41:02.033Z,15.50
2022-09-04T02:44:09.918Z,15.50
2022-09-04T02:46:57.039Z,15.50
2022-09-04T02:49:40.289Z,15.50
2022-09-04T02:52:10.106Z,15.50
2022-09-04T02:54:57.968Z,15.50
2022-09-04T02:57:50.360Z,15.50
2022-09-04T03:00:21.623Z,15.50
2022-09-04T03:03:05.487Z,15.40
2022-09-04T03:06:01.670Z,15.40
2022-09-04T03:08:36.839Z,15.30
2022-09-04T03:11:16.331Z,15.30
2022-09-04T03:14:24.701Z,15.30
2022-09-04T03:17:13.509Z,15.30
2022-09-04T03:20:16.463Z,15.20
2022-09-04T03:22:50.911Z,15.20
2022-09-04T03:25:23.815Z,15.20
2022-09-04T03:27:50.850Z,15.30
2022-09-04T03:30:18.473Z,15.30
2022-09-04T03:33:04.993Z,15.30
2022-09-04T03:35:49.995Z,15.30
2022-09-04T03:38:42.432Z,15.30
2022-09-04T03:41:43.761Z,15.20
2022-09-04T03:44:16.106Z,15.20
2022-09-04T03:46:51.586Z,15.10
2022-09-04T03:49:47.909Z,15.10
2022-09-04T03:52:28.476Z,15.10
2022-09-04T03:55:16.951Z,15.00
2022-09-04T03:58:25.198Z,15.00
2022-09-04T04:01:21.632Z,15.00
2022-09-04T04:04:28.290Z,15.00
2022-09-04T04:07:16.766Z,15.00
2022-09-04T04:10:24.965Z,15.00
2022-09-04T04:13:12.829Z,15.00
2022-09-04T04:15:42.446Z,15.00
2022-09-04T04:18:13.371Z,15.00
2022-09-04T04:20:58.055Z,15.00
2022-09-04T04:23:47.008Z,15.00
2022-09-04T04:26:29.020Z,15.00
2022-09-04T04:29:17.231Z,15.00
2022-09-04T04:32:10.634Z,15.00
2022-09-04T04:34:43.458Z,15.00
2022-09-04T04:37:26.573Z,15.00
2022-09-04T04:40:10.063Z,15.00
2022-09-04T04:43:09.717Z,15.00
2022-09-04T04:45:56.002Z,15.10
2022-09-04T04:48:36.760Z,15.10
2022-09-04T04:51:41.409Z,15.10
2022-09-04T04:54:27.379Z,15.10
2022-09-04T04:57:09.035Z,15.20
2022-09-04T05:00:18.689Z,15.20
2022-09-04T05:03:04.087Z,15.20
2022-09-04T05:05:50.693Z,15.20
2022-09-04T05:08:44.767Z,15.30
2022-09-04T05:11:49.501Z,15.40
2022-09-04T05:14:29.073Z,15.40
2022-09-04T05:17:16.184Z,15.50
2022-09-04T05:20:09.221Z,15.50
2022-09-04T05:22:53.646Z,15.60
2022-09-04T05:25:43.415Z,15.60
2022-09-04T05:28:25.363Z,15.60
2022-09-04T05:31:48.197Z,15.60
2022-09-04T05:34:44.012Z,15.70
2022-09-04T05:37:17.060Z,15.70
2022-09-04T05:40:13.752Z,15.70
2022-09-04T05:42:58.338Z,15.70
2022-09-04T05:45:49.554Z,15.70
2022-09-04T05:48:31.944Z,15.80
2022-09-04T05:51:27.445Z,15.80
2022-09-04T05:54:09.225Z,15.90
2022-09-04T05:57:00.686Z,15.90
2022-09-04T05:59:51.215Z,15.90
2022-09-04T06:02:55.369Z,16.00
2022-09-04T06:05:57.350Z,16.10
2022-09-04T06:08:44.374Z,16.20
2022-09-04T06:11:50.797Z,16.30
2022-09-04T06:14:23.783Z,16.30
2022-09-04T06:17:27.524Z,16.40
2022-09-04T06:20:19.974Z,16.50
2022-09-04T06:23:04.756Z,16.60
2022-09-04T06:25:46.581Z,16.60
2022-09-04T06:28:16.414Z,16.60
2022-09-04T06:31:18.269Z,16.60
2022-09-04T06:34:03.341Z,16.60
2022-09-04T06:36:58.125Z,16.70
2022-09-04T06:39:40.071Z,16.70
2022-09-04T06:42:06.843Z,16.90
2022-09-04T06:45:00.508Z,17.10
2022-09-04T06:47:44.700Z,17.20
2022-09-04T06:50:42.819Z,17.30
2022-09-04T06:53:09.594Z,17.30
2022-09-04T06:55:46.283Z,17.40
2022-09-04T06:58:41.185Z,17.50
2022-09-04T07:01:40.257Z,17.70
2022-09-04T07:04:23.159Z,17.70
2022-09-04T07:07:03.729Z,17.70
2022-09-04T07:09:41.940Z,17.70
2022-09-04T07:12:25.538Z,17.80
2022-09-04T07:15:21.383Z,17.80
2022-09-04T07:18:15.668Z,17.90
2022-09-04T07:21:11.288Z,18.00
2022-09-04T07:23:55.793Z,18.10
2022-09-04T07:26:56.394Z,18.20
2022-09-04T07:29:27.884Z,18.30
2022-09-04T07:32:15.420Z,18.30
2022-09-04T07:34:52.789Z,18.50
2022-09-04T07:37:29.863Z,18.70
2022-09-04T07:40:10.194Z,18.90
2022-09-04T07:42:40.099Z,18.90
2022-09-04T07:45:22.556Z,19.00
2022-09-04T07:48:12.768Z,19.20
2022-09-04T07:51:03.529Z,19.40
2022-09-04T07:53:58.661Z,19.60
2022-09-04T07:56:49.398Z,19.80
2022-09-04T07:59:31.475Z,20.00
2022-09-04T08:02:19.274Z,20.30
2022-09-04T08:05:04.970Z,20.50
2022-09-04T08:07:34.609Z,20.70
2022-09-04T08:10:33.758Z,20.80
2022-09-04T08:13:18.393Z,21.10
2022-09-04T08:16:06.439Z,21.80
2022-09-04T08:18:58.465Z,22.20
2022-09-04T08:21:48.898Z,22.40
2022-09-04T08:24:18.646Z,22.80
2022-09-04T08:27:14.208Z,23.40
2022-09-04T08:30:05.362Z,23.80
2022-09-04T08:33:13.161Z,25.20
2022-09-04T08:36:05.385Z,27.00
2022-09-04T08:38:56.602Z,29.00
2022-09-04T08:41:38.246Z,30.00
2022-09-04T08:44:27.825Z,31.10
2022-09-04T08:47:10.385Z,32.40
2022-09-04T08:50:25.689Z,33.10
2022-09-04T08:53:10.391Z,33.50
2022-09-04T08:56:03.281Z,34.80
2022-09-04T08:58:54.194Z,35.50
2022-09-04T09:01:41.181Z,35.90
2022-09-04T09:04:32.756Z,36.30
2022-09-04T09:07:13.596Z,36.80
2022-09-04T09:10:18.232Z,37.40
2022-09-04T09:13:02.752Z,37.60
2022-09-04T09:15:57.396Z,37.10
2022-09-04T09:19:02.815Z,37.20
2022-09-04T09:21:51.651Z,38.10
2022-09-04T09:24:43.016Z,38.60
2022-09-04T09:27:28.672Z,38.70
2022-09-04T09:30:07.499Z,38.40
2022-09-04T09:33:02.566Z,38.30
2022-09-04T09:35:51.560Z,38.60
2022-09-04T09:38:48.591Z,39.20
2022-09-04T09:41:38.002Z,39.70
2022-09-04T09:44:04.791Z,40.00
2022-09-04T09:46:59.283Z,40.20
2022-09-04T09:49:38.129Z,40.50
2022-09-04T09:52:14.305Z,40.90
2022-09-04T09:55:06.163Z,41.30
2022-09-04T09:57:34.139Z,41.70
2022-09-04T10:00:23.877Z,41.60
2022-09-04T10:03:12.126Z,41.90
2022-09-04T10:05:54.848Z,42.10
2022-09-04T10:09:09.508Z,42.10
2022-09-04T10:12:14.888Z,42.10
2022-09-04T10:15:21.123Z,42.30
2022-09-04T10:18:00.430Z,42.50
2022-09-04T10:21:12.324Z,43.00
2022-09-04T10:24:13.303Z,43.30
2022-09-04T10:27:04.130Z,43.00
2022-09-04T10:29:42.691Z,43.00
2022-09-04T10:32:34.097Z,43.30
2022-09-04T10:35:31.805Z,43.80
2022-09-04T10:39:05.815Z,44.10
2022-09-04T10:41:47.189Z,43.90
2022-09-04T10:44:49.490Z,43.50
2022-09-04T10:47:54.035Z,43.90
2022-09-04T10:50:46.373Z,44.20
2022-09-04T10:53:36.744Z,44.40
2022-09-04T10:56:35.260Z,44.60
2022-09-04T10:59:27.013Z,44.70
2022-09-04T11:02:18.338Z,44.70
2022-09-04T11:05:07.045Z,42.60
2022-09-04T11:07:36.662Z,41.00
2022-09-04T11:10:04.431Z,41.60
2022-09-04T11:13:02.070Z,42.00
2022-09-04T11:15:50.989Z,41.70
2022-09-04T11:18:34.499Z,40.60
2022-09-04T11:21:40.711Z,39.20
2022-09-04T11:24:22.682Z,39.40
2022-09-04T11:27:05.937Z,40.30
2022-09-04T11:29:49.180Z,41.40
2022-09-04T11:32:43.921Z,42.50
2022-09-04T11:35:32.157Z,42.70
2022-09-04T11:38:07.549Z,43.40
2022-09-04T11:40:56.132Z,43.90
2022-09-04T11:44:07.264Z,43.80
2022-09-04T11:46:43.998Z,43.00
2022-09-04T11:49:40.831Z,42.70
2022-09-04T11:52:16.327Z,42.40
2022-09-04T11:55:31.414Z,42.30
2022-09-04T11:58:11.378Z,41.90
2022-09-04T12:00:58.388Z,41.70
2022-09-04T12:03:40.740Z,41.60
2022-09-04T12:06:07.569Z,41.60
2022-09-04T12:08:53.299Z,41.70
2022-09-04T12:11:56.557Z,40.40
2022-09-04T12:14:26.542Z,38.10
2022-09-04T12:17:15.648Z,37.20
2022-09-04T12:19:51.404Z,37.70
2022-09-04T12:22:55.759Z,38.50
2022-09-04T12:25:34.456Z,39.10
2022-09-04T12:28:26.688Z,38.80
2022-09-04T12:31:27.476Z,38.50
2022-09-04T12:34:12.740Z,38.00
2022-09-04T12:37:27.896Z,37.30
2022-09-04T12:39:57.437Z,37.10
2022-09-04T12:42:57.290Z,36.50
2022-09-04T12:45:53.407Z,35.80
2022-09-04T12:48:38.502Z,35.40
2022-09-04T12:51:17.982Z,34.80
2022-09-04T12:53:52.039Z,34.20
2022-09-04T12:56:57.557Z,33.60
2022-09-04T12:59:45.095Z,32.80
2022-09-04T13:02:39.742Z,32.20
2022-09-04T13:05:32.145Z,31.70
2022-09-04T13:08:27.990Z,31.20
2022-09-04T13:11:24.439Z,30.80
2022-09-04T13:14:15.607Z,30.50
2022-09-04T13:17:12.611Z,30.40
2022-09-04T13:20:00.495Z,30.40
2022-09-04T13:22:27.612Z,30.40
2022-09-04T13:25:02.714Z,30.30
2022-09-04T13:27:50.298Z,30.20
2022-09-04T13:30:22.221Z,30.00
2022-09-04T13:32:52.549Z,29.70
2022-09-04T13:35:38.708Z,29.60
2022-09-04T13:38:26.024Z,29.30
2022-09-04T13:41:30.743Z,29.20
2022-09-04T13:44:06.552Z,29.10
2022-09-04T13:46:44.280Z,28.90
2022-09-04T13:49:20.364Z,28.60
2022-09-04T13:51:54.874Z,28.40
2022-09-04T13:54:31.435Z,28.40
2022-09-04T13:57:21.029Z,28.40
2022-09-04T13:59:50.019Z,28.50
2022-09-04T14:02:25.393Z,28.40
2022-09-04T14:05:11.395Z,28.30
2022-09-04T14:07:45.503Z,28.20
2022-09-04T14:10:25.681Z,28.10
2022-09-04T14:13:01.716Z,28.10
2022-09-04T14:15:48.823Z,28.00
2022-09-04T14:18:36.511Z,28.00
2022-09-04T14:21:42.721Z,27.90
2022-09-04T14:24:24.675Z,27.80
2022-09-04T14:27:03.633Z,27.70
2022-09-04T14:29:54.450Z,27.70
2022-09-04T14:32:46.802Z,27.70
2022-09-04T14:35:46.898Z,27.60
2022-09-04T14:38:32.706Z,27.60
2022-09-04T14:41:29.513Z,27.60
2022-09-04T14:44:10.063Z,27.50
2022-09-04T14:47:02.674Z,27.40
2022-09-04T14:49:31.738Z,27.40
2022-09-04T14:52:16.183Z,27.40
2022-09-04T14:54:46.558Z,27.30
2022-09-04T14:57:33.772Z,27.30
2022-09-04T15:00:10.343Z,27.30
2022-09-04T15:02:47.671Z,27.30
2022-09-04T15:05:30.779Z,27.30
2022-09-04T15:08:03.559Z,27.40
2022-09-04T15:10:51.470Z,27.40
2022-09-04T15:13:27.551Z,27.40
2022-09-04T15:15:58.254Z,27.40
2022-09-04T15:18:25.048Z,27.30
2022-09-04T15:21:03.440Z,27.30
2022-09-04T15:23:56.181Z,27.40
2022-09-04T15:26:37.518Z,27.30
2022-09-04T15:29:27.203Z,27.20
2022-09-04T15:32:06.543Z,27.10
2022-09-04T15:34:40.726Z,26.90
2022-09-04T15:37:27.446Z,26.80
2022-09-04T15:40:03.703Z,26.70
2022-09-04T15:42:46.392Z,26.50
2022-09-04T15:45:33.482Z,26.50
2022-09-04T15:48:18.498Z,26.60
2022-09-04T15:51:07.336Z,26.50
2022-09-04T15:53:37.078Z,26.50
2022-09-04T15:56:15.976Z,26.50
2022-09-04T15:58:51.196Z,26.40
2022-09-04T16:01:30.664Z,26.40
2022-09-04T16:04:15.704Z,26.30
2022-09-04T16:06:54.398Z,26.10
2022-09-04T16:09:24.316Z,26.10
2022-09-04T16:12:03.961Z,26.00
2022-09-04T16:14:44.480Z,26.00
2022-09-04T16:17:28.466Z,25.90
2022-09-04T16:20:08.837Z,25.80
2022-09-04T16:22:44.555Z,25.80
2022-09-04T16:25:31.452Z,25.70
2022-09-04T16:28:15.219Z,25.70
2022-09-04T16:30:47.148Z,25.60
2022-09-04T16:33:28.186Z,25.60
2022-09-04T16:36:05.793Z,25.60
2022-09-04T16:38:42.220Z,25.60
2022-09-04T16:41:15.179Z,25.60
2022-09-04T16:44:13.877Z,25.60
2022-09-04T16:47:16.455Z,25.60
2022-09-04T16:49:59.424Z,25.60
2022-09-04T16:53:13.503Z,25.60
2022-09-04T16:55:56.460Z,25.60
2022-09-04T16:58:39.862Z,25.60
2022-09-04T17:01:16.091Z,25.70
2022-09-04T17:04:14.539Z,25.80
2022-09-04T17:07:02.891Z,25.80
2022-09-04T17:09:34.173Z,25.80
2022-09-04T17:12:26.288Z,25.90
2022-09-04T17:15:07.161Z,25.80
2022-09-04T17:17:38.049Z,25.90
2022-09-04T17:20:11.389Z,25.90
2022-09-04T17:28:34.044Z,25.80
2022-09-04T17:29:17.147Z,25.80
2022-09-04T17:29:34.593Z,25.70
2022-09-04T17:32:38.295Z,25.60
2022-09-04T17:40:33.634Z,25.50
2022-09-04T17:40:44.001Z,25.40
2022-09-04T17:41:38.337Z,25.30
2022-09-04T17:44:25.448Z,25.10
2022-09-04T17:47:25.114Z,25.00
2022-09-04T17:49:53.534Z,24.80
2022-09-04T17:52:23.113Z,24.60
2022-09-04T17:54:50.615Z,24.50
2022-09-04T17:57:46.905Z,24.40
2022-09-04T18:00:24.990Z,24.30
2022-09-04T18:03:21.082Z,24.10
2022-09-04T18:05:56.679Z,24.00
2022-09-04T18:08:48.346Z,23.90
2022-09-04T18:11:24.686Z,23.80
2022-09-04T18:14:02.335Z,23.60
2022-09-04T18:16:47.800Z,23.50
2022-09-04T18:19:46.040Z,23.40
2022-09-04T18:22:33.837Z,23.30
2022-09-04T18:25:16.368Z,23.30
2022-09-04T18:28:06.351Z,23.20
2022-09-04T18:37:10.614Z,23.20
2022-09-04T18:37:21.340Z,23.10
2022-09-04T18:37:44.602Z,23.00
2022-09-04T18:39:57.759Z,22.90
2022-09-04T18:50:21.406Z,22.70
2022-09-04T18:50:31.398Z,22.60
2022-09-04T18:50:36.799Z,22.40
2022-09-04T18:51:52.485Z,22.30
2022-09-04T18:54:29.062Z,22.20
2022-09-04T18:57:06.768Z,22.10
2022-09-04T18:59:42.337Z,22.00
2022-09-04T19:02:21.636Z,21.90
2022-09-04T19:05:08.687Z,21.80
2022-09-04T19:07:47.121Z,21.70
2022-09-04T19:10:35.740Z,21.60
2022-09-04T19:13:10.698Z,21.50
2022-09-04T19:15:49.862Z,21.40
2022-09-04T19:18:54.023Z,21.30
2022-09-04T19:21:30.609Z,21.30
2022-09-04T19:24:34.150Z,21.20
2022-09-04T19:27:27.279Z,21.10
2022-09-04T19:30:17.756Z,21.10
2022-09-04T19:32:59.794Z,21.00
2022-09-04T19:35:32.300Z,20.90
2022-09-04T19:42:04.706Z,20.80
2022-09-04T19:45:59.607Z,20.70
2022-09-04T19:46:09.601Z,20.70
2022-09-04T19:47:29.363Z,20.70
2022-09-04T19:53:23.028Z,20.60
2022-09-04T19:53:33.500Z,20.60
2022-09-04T19:56:08.437Z,20.50
2022-09-04T19:58:45.727Z,20.50
2022-09-04T20:01:20.533Z,20.40
2022-09-04T20:04:02.071Z,20.30
2022-09-04T20:06:36.393Z,20.20
2022-09-04T20:09:58.906Z,20.20
2022-09-04T20:12:42.195Z,20.20
2022-09-04T20:15:22.225Z,20.10
2022-09-04T20:18:22.432Z,20.10
2022-09-04T20:21:14.185Z,20.10
2022-09-04T20:23:59.906Z,20.10
2022-09-04T20:26:35.754Z,20.00
2022-09-04T20:29:24.009Z,20.00
2022-09-04T20:32:09.082Z,19.90
2022-09-04T20:34:49.607Z,19.80
2022-09-04T20:37:38.265Z,19.70
2022-09-04T20:40:17.718Z,19.70
2022-09-04T20:42:50.178Z,19.60
2022-09-04T20:50:28.996Z,19.50
2022-09-04T20:52:53.307Z,19.40
2022-09-04T20:52:54.405Z,19.40
2022-09-04T20:54:55.720Z,19.20
2022-09-04T21:03:05.123Z,19.20
2022-09-04T21:03:19.736Z,19.10
2022-09-04T21:03:29.022Z,19.10
2022-09-04T21:06:12.873Z,19.10
2022-09-04T21:09:17.567Z,19.00
2022-09-04T21:11:54.416Z,19.00
2022-09-04T21:14:44.861Z,18.90
2022-09-04T21:17:46.837Z,18.90
2022-09-04T21:20:43.415Z,18.80
2022-09-04T21:24:01.978Z,18.80
2022-09-04T21:26:40.063Z,18.70
2022-09-04T21:29:29.421Z,18.60
2022-09-04T21:32:28.103Z,18.60
2022-09-04T21:35:13.064Z,18.50
2022-09-04T21:38:04.698Z,18.50
2022-09-04T21:40:51.582Z,18.50
2022-09-04T21:43:47.423Z,18.50
2022-09-04T21:46:41.938Z,18.50
2022-09-04T21:49:37.148Z,18.50
2022-09-04T21:52:45.905Z,18.40
2022-09-04T21:59:50.648Z,18.40
2022-09-04T22:02:39.334Z,18.40
2022-09-04T22:02:45.496Z,18.40
2022-09-04T22:04:48.643Z,18.40
2022-09-04T22:12:09.064Z,18.40
2022-09-04T22:13:42.495Z,18.40
2022-09-04T22:13:49.173Z,18.40
2022-09-04T22:16:41.931Z,18.50
2022-09-04T22:19:30.886Z,18.50
2022-09-04T22:22:35.187Z,18.40
2022-09-04T22:25:19.788Z,18.40
2022-09-04T22:28:20.702Z,18.40
2022-09-04T22:31:17.504Z,18.30
2022-09-04T22:34:14.918Z,18.30
2022-09-04T22:37:01.112Z,18.30
2022-09-04T22:39:49.455Z,18.30
2022-09-04T22:42:31.578Z,18.30
2022-09-04T22:45:32.498Z,18.20
2022-09-04T22:48:14.820Z,18.20
2022-09-04T22:50:51.000Z,18.20
2022-09-04T22:53:41.961Z,18.10
2022-09-04T22:56:24.346Z,18.10
2022-09-04T22:59:26.700Z,18.10
2022-09-04T23:02:16.647Z,18.10
2022-09-04T23:05:05.487Z,18.00
2022-09-04T23:13:49.432Z,17.90
2022-09-04T23:13:54.249Z,18.00
2022-09-04T23:14:19.305Z,17.90
2022-09-04T23:16:49.483Z,17.90
2022-09-04T23:26:37.949Z,17.80
2022-09-04T23:26:39.155Z,17.80
2022-09-04T23:26:49.019Z,17.80
2022-09-04T23:29:44.485Z,17.70
2022-09-04T23:33:09.687Z,17.80
2022-09-04T23:36:18.652Z,17.80
2022-09-04T23:38:57.728Z,17.80
2022-09-04T23:41:33.654Z,17.80
2022-09-04T23:44:26.709Z,17.80
2022-09-04T23:47:47.378Z,17.80
2022-09-04T23:50:21.622Z,17.80
2022-09-04T23:53:03.660Z,17.80
2022-09-04T23:56:01.330Z,17.80
2022-09-04T23:59:29.349Z,17.70
